createdAt,value
2022-09-24T00:00:32.017Z,12.80
2022-09-24T00:03:05.435Z,8.80
2022-09-24T00:05:18.975Z,8.10
2022-09-24T00:07:32.461Z,11.50
2022-09-24T00:09:46.158Z,10.70
2022-09-24T00:11:59.464Z,12.90
2022-09-24T00:14:13.449Z,12.00
2022-09-24T00:16:29.114Z,14.50
2022-09-24T00:18:43.114Z,8.70
2022-09-24T00:20:56.318Z,13.50
2022-09-24T00:23:10.360Z,12.80
2022-09-24T00:25:51.275Z,10.40
2022-09-24T00:28:04.671Z,8.70
2022-09-24T00:30:18.857Z,11.20
2022-09-24T00:32:32.231Z,9.50
2022-09-24T00:34:45.558Z,12.90
2022-09-24T00:36:59.415Z,7.10
2022-09-24T00:39:13.041Z,10.50
2022-09-24T00:41:29.293Z,18.10
2022-09-24T00:43:43.665Z,7.80
2022-09-24T00:45:58.630Z,14.20
2022-09-24T00:48:12.396Z,14.50
2022-09-24T00:50:28.913Z,22.70
2022-09-24T00:52:45.971Z,15.00
2022-09-24T00:54:59.459Z,12.70
2022-09-24T00:57:13.545Z,15.50
2022-09-24T00:59:28.755Z,9.50
2022-09-24T01:01:41.870Z,10.60
2022-09-24T01:03:57.630Z,23.90
2022-09-24T01:06:11.840Z,13.90
2022-09-24T01:08:25.816Z,10.50
2022-09-24T01:10:52.243Z,13.80
2022-09-24T01:13:16.800Z,10.80
2022-09-24T01:15:37.266Z,16.90
2022-09-24T01:18:00.800Z,14.60
2022-09-24T01:20:48.979Z,11.30
2022-09-24T01:23:28.262Z,7.40
2022-09-24T01:25:48.652Z,12.00
2022-09-24T01:28:21.705Z,14.10
2022-09-24T01:30:41.719Z,11.40
2022-09-24T01:32:59.972Z,10.30
2022-09-24T01:35:19.637Z,9.50
2022-09-24T01:37:37.006Z,16.50
2022-09-24T01:39:52.738Z,13.50
2022-09-24T01:42:06.838Z,10.70
2022-09-24T01:44:20.303Z,8.80
2022-09-24T01:46:34.305Z,9.50
2022-09-24T01:48:48.025Z,4.80
2022-09-24T01:51:06.283Z,15.70
2022-09-24T01:53:23.413Z,15.30
2022-09-24T01:55:45.581Z,2.90
2022-09-24T01:58:03.635Z,3.60
2022-09-24T02:00:20.590Z,2.70
2022-09-24T02:02:39.007Z,2.30
2022-09-24T02:04:57.105Z,4.00
2022-09-24T02:07:15.385Z,2.20
2022-09-24T02:09:39.868Z,2.80
2022-09-24T02:11:54.902Z,3.30
2022-09-24T02:14:17.979Z,4.60
2022-09-24T02:16:36.957Z,3.40
2022-09-24T02:18:55.690Z,2.60
2022-09-24T02:21:13.108Z,5.90
2022-09-24T02:23:28.534Z,4.30
2022-09-24T02:25:46.400Z,6.30
2022-09-24T02:28:00.261Z,5.80
2022-09-24T02:30:18.644Z,3.50
2022-09-24T02:32:35.106Z,2.00
2022-09-24T02:34:52.213Z,4.20
2022-09-24T02:37:09.838Z,3.20
2022-09-24T02:39:23.318Z,5.20
2022-09-24T02:41:37.570Z,4.00
2022-09-24T02:43:51.078Z,2.80
2022-09-24T02:46:05.475Z,3.60
2022-09-24T02:48:18.856Z,4.60
2022-09-24T02:50:32.389Z,5.90
2022-09-24T02:52:46.195Z,3.50
2022-09-24T02:54:59.808Z,4.50
2022-09-24T02:57:13.181Z,4.50
2022-09-24T02:59:26.993Z,5.40
2022-09-24T03:01:40.944Z,4.30
2022-09-24T03:03:54.583Z,6.60
2022-09-24T03:06:08.044Z,5.10
2022-09-24T03:08:21.360Z,4.40
2022-09-24T03:10:34.715Z,3.00
2022-09-24T03:12:48.487Z,5.40
2022-09-24T03:15:01.933Z,4.00
2022-09-24T03:17:15.965Z,3.90
2022-09-24T03:19:29.227Z,5.10
2022-09-24T03:21:42.697Z,5.00
2022-09-24T03:23:56.318Z,4.40
2022-09-24T03:26:10.182Z,6.20
2022-09-24T03:28:24.644Z,3.70
2022-09-24T03:30:54.425Z,3.40
2022-09-24T03:33:07.918Z,5.80
2022-09-24T03:35:21.892Z,4.50
2022-09-24T03:37:36.095Z,3.70
2022-09-24T03:39:49.574Z,3.80
2022-09-24T03:42:02.985Z,4.20
2022-09-24T03:44:16.521Z,2.70
2022-09-24T03:46:31.297Z,6.50
2022-09-24T03:48:45.585Z,3.60
2022-09-24T03:50:59.150Z,5.30
2022-09-24T03:53:12.638Z,3.10
2022-09-24T03:55:25.986Z,5.60
2022-09-24T03:57:39.353Z,3.40
2022-09-24T03:59:54.167Z,6.40
2022-09-24T04:02:07.747Z,3.20
2022-09-24T04:04:21.434Z,4.80
2022-09-24T04:06:35.301Z,4.30
2022-09-24T04:08:48.727Z,4.10
2022-09-24T04:11:02.247Z,2.50
2022-09-24T04:13:15.842Z,5.90
2022-09-24T04:15:29.479Z,4.10
2022-09-24T04:17:42.925Z,4.70
2022-09-24T04:19:56.495Z,2.70
2022-09-24T04:22:10.319Z,4.50
2022-09-24T04:24:23.693Z,4.10
2022-09-24T04:26:37.363Z,2.80
2022-09-24T04:28:51.659Z,5.20
2022-09-24T04:31:05.442Z,5.30
2022-09-24T04:33:19.026Z,4.00
2022-09-24T04:35:33.483Z,3.70
2022-09-24T04:37:46.803Z,6.50
2022-09-24T04:40:00.771Z,3.20
2022-09-24T04:42:18.965Z,4.60
2022-09-24T04:44:32.342Z,6.80
2022-09-24T04:46:45.879Z,7.70
2022-09-24T04:48:59.252Z,8.80
2022-09-24T04:51:13.664Z,3.40
2022-09-24T04:53:27.374Z,4.40
2022-09-24T04:55:41.116Z,2.60
2022-09-24T04:57:54.984Z,3.40
2022-09-24T05:00:09.915Z,4.60
2022-09-24T05:02:25.319Z,2.40
2022-09-24T05:04:38.798Z,2.80
2022-09-24T05:06:52.073Z,4.70
2022-09-24T05:09:08.952Z,3.10
2022-09-24T05:11:28.278Z,3.50
2022-09-24T05:13:41.648Z,3.60
2022-09-24T05:15:55.167Z,6.70
2022-09-24T05:18:09.438Z,4.60
2022-09-24T05:20:23.153Z,2.80
2022-09-24T05:22:37.856Z,3.10
2022-09-24T05:24:51.097Z,4.80
2022-09-24T05:27:13.341Z,3.70
2022-09-24T05:29:27.070Z,4.00
2022-09-24T05:31:40.399Z,3.80
2022-09-24T05:33:54.062Z,5.30
2022-09-24T05:36:07.802Z,2.60
2022-09-24T05:38:21.136Z,4.50
2022-09-24T05:40:52.660Z,10.60
2022-09-24T05:43:08.355Z,4.90
2022-09-24T05:45:22.124Z,4.00
2022-09-24T05:47:35.401Z,3.40
2022-09-24T05:49:49.046Z,5.50
2022-09-24T05:52:02.857Z,1.90
2022-09-24T05:54:16.209Z,3.20
2022-09-24T05:56:29.652Z,4.30
2022-09-24T05:58:43.119Z,1.90
2022-09-24T06:00:56.623Z,2.30
2022-09-24T06:03:11.525Z,4.90
2022-09-24T06:05:25.135Z,5.40
2022-09-24T06:07:38.545Z,3.50
2022-09-24T06:09:52.006Z,4.10
2022-09-24T06:12:05.738Z,3.50
2022-09-24T06:14:19.009Z,5.60
2022-09-24T06:16:32.318Z,4.30
2022-09-24T06:18:46.501Z,3.60
2022-09-24T06:21:03.979Z,3.50
2022-09-24T06:23:17.239Z,3.90
2022-09-24T06:25:31.093Z,2.70
2022-09-24T06:27:44.450Z,1.20
2022-09-24T06:29:57.607Z,2.20
2022-09-24T06:32:11.317Z,2.10
2022-09-24T06:34:24.521Z,4.60
2022-09-24T06:36:38.192Z,2.30
2022-09-24T06:38:53.642Z,3.50
2022-09-24T06:41:08.495Z,3.10
2022-09-24T06:43:21.947Z,4.70
2022-09-24T06:45:35.163Z,3.70
2022-09-24T06:47:48.451Z,2.20
2022-09-24T06:50:01.736Z,5.70
2022-09-24T06:52:15.852Z,2.90
2022-09-24T06:54:30.306Z,3.30
2022-09-24T06:56:43.553Z,3.70
2022-09-24T06:58:57.118Z,4.00
2022-09-24T07:01:10.838Z,3.80
2022-09-24T07:03:24.577Z,2.50
2022-09-24T07:05:43.195Z,3.50
2022-09-24T07:07:56.988Z,2.60
2022-09-24T07:10:12.307Z,2.70
2022-09-24T07:12:25.694Z,4.00
2022-09-24T07:14:39.111Z,4.00
2022-09-24T07:16:53.523Z,1.40
2022-09-24T07:19:06.958Z,2.10
2022-09-24T07:21:20.288Z,2.40
2022-09-24T07:23:33.909Z,2.30
2022-09-24T07:25:47.135Z,5.10
2022-09-24T07:28:03.942Z,2.60
2022-09-24T07:30:19.174Z,3.10
2022-09-24T07:32:32.811Z,3.10
2022-09-24T07:34:46.696Z,1.60
2022-09-24T07:37:02.160Z,1.50
2022-09-24T07:39:16.045Z,2.30
2022-09-24T07:41:29.409Z,3.60
2022-09-24T07:43:43.366Z,1.30
2022-09-24T07:45:56.997Z,3.00
2022-09-24T07:48:11.250Z,3.70
2022-09-24T07:50:24.577Z,3.00
2022-09-24T07:52:37.963Z,1.50
2022-09-24T07:54:51.184Z,1.50
2022-09-24T07:57:04.499Z,5.80
2022-09-24T07:59:17.877Z,2.70
2022-09-24T08:01:31.201Z,2.20
2022-09-24T08:03:45.110Z,2.70
2022-09-24T08:06:01.113Z,5.70
2022-09-24T08:08:14.355Z,2.20
2022-09-24T08:10:28.410Z,2.80
2022-09-24T08:12:41.674Z,3.70
2022-09-24T08:14:54.926Z,2.90
2022-09-24T08:17:08.250Z,2.30
2022-09-24T08:19:21.432Z,2.50
2022-09-24T08:21:35.235Z,1.50
2022-09-24T08:23:48.963Z,3.30
2022-09-24T08:26:02.926Z,2.70
2022-09-24T08:28:18.279Z,4.90
2022-09-24T08:30:32.249Z,1.50
2022-09-24T08:32:49.460Z,2.40
2022-09-24T08:35:02.763Z,1.30
2022-09-24T08:37:16.602Z,2.60
2022-09-24T08:39:30.347Z,2.80
2022-09-24T08:41:57.309Z,3.30
2022-09-24T08:44:15.550Z,1.70
2022-09-24T08:46:48.569Z,2.70
2022-09-24T08:49:03.495Z,3.20
2022-09-24T08:51:20.509Z,2.00
2022-09-24T08:53:41.311Z,2.80
2022-09-24T08:55:57.689Z,2.00
2022-09-24T08:58:29.729Z,3.30
2022-09-24T09:00:50.722Z,4.90
2022-09-24T09:03:10.227Z,1.70
2022-09-24T09:05:30.629Z,2.10
2022-09-24T09:07:50.550Z,1.40
2022-09-24T09:10:08.340Z,1.20
2022-09-24T09:12:26.735Z,0.80
2022-09-24T09:14:47.627Z,3.10
2022-09-24T09:17:05.593Z,2.10
2022-09-24T09:19:20.921Z,4.10
2022-09-24T09:21:41.129Z,1.10
2022-09-24T09:23:57.992Z,2.00
2022-09-24T09:26:13.741Z,3.20
2022-09-24T09:28:29.248Z,2.00
2022-09-24T09:30:51.684Z,1.50
2022-09-24T09:33:16.805Z,1.80
2022-09-24T09:35:37.398Z,2.50
2022-09-24T09:38:00.905Z,1.10
2022-09-24T09:40:32.541Z,3.70
2022-09-24T09:42:46.754Z,2.90
2022-09-24T09:45:00.368Z,2.50
2022-09-24T09:47:23.961Z,1.00
2022-09-24T09:49:39.808Z,1.40
2022-09-24T09:51:58.324Z,3.70
2022-09-24T09:54:12.524Z,2.70
2022-09-24T09:56:31.293Z,1.40
2022-09-24T09:58:48.429Z,1.80
2022-09-24T10:01:10.508Z,2.20
2022-09-24T10:03:35.002Z,5.70
2022-09-24T10:05:55.354Z,2.90
2022-09-24T10:08:11.377Z,2.10
2022-09-24T10:10:28.189Z,1.50
2022-09-24T10:12:41.370Z,1.90
2022-09-24T10:15:03.487Z,1.60
2022-09-24T10:17:21.205Z,3.00
2022-09-24T10:19:37.158Z,2.60
2022-09-24T10:21:50.827Z,1.80
2022-09-24T10:24:10.199Z,2.00
2022-09-24T10:26:23.618Z,1.90
2022-09-24T10:28:54.609Z,4.10
2022-09-24T10:31:10.737Z,1.20
2022-09-24T10:33:24.358Z,2.10
2022-09-24T10:35:39.777Z,3.40
2022-09-24T10:37:59.826Z,1.50
2022-09-24T10:40:19.206Z,2.60
2022-09-24T10:42:33.685Z,1.30
2022-09-24T10:44:50.681Z,1.80
2022-09-24T10:47:37.046Z,1.70
2022-09-24T10:50:20.691Z,3.20
2022-09-24T10:52:44.561Z,1.20
2022-09-24T10:55:10.330Z,3.30
2022-09-24T10:57:34.795Z,2.00
2022-09-24T10:59:59.883Z,3.90
2022-09-24T11:02:41.521Z,1.40
2022-09-24T11:04:58.758Z,1.50
2022-09-24T11:07:27.721Z,2.00
2022-09-24T11:09:47.380Z,1.40
2022-09-24T11:12:15.378Z,1.60
2022-09-24T11:14:47.835Z,1.60
2022-09-24T11:17:29.583Z,2.00
2022-09-24T11:20:05.730Z,2.00
2022-09-24T11:22:25.299Z,1.30
2022-09-24T11:25:03.567Z,1.60
2022-09-24T11:27:38.649Z,2.10
2022-09-24T11:30:12.707Z,2.30
2022-09-24T11:32:33.479Z,3.40
2022-09-24T11:35:25.424Z,0.90
2022-09-24T11:37:54.794Z,2.50
2022-09-24T11:40:22.621Z,2.10
2022-09-24T11:42:41.674Z,2.60
2022-09-24T11:45:08.033Z,1.00
2022-09-24T11:47:38.489Z,1.30
2022-09-24T11:50:03.910Z,2.60
2022-09-24T11:52:26.845Z,1.80
2022-09-24T11:54:43.720Z,1.10
2022-09-24T11:57:04.204Z,1.30
2022-09-24T11:59:26.265Z,1.90
2022-09-24T12:01:42.108Z,2.30
2022-09-24T12:04:00.690Z,1.00
2022-09-24T12:06:19.561Z,1.20
2022-09-24T12:08:37.553Z,0.90
2022-09-24T12:10:55.996Z,2.20
2022-09-24T12:13:19.742Z,2.20
2022-09-24T12:15:41.217Z,2.80
2022-09-24T12:17:59.532Z,4.60
2022-09-24T12:20:23.592Z,1.20
2022-09-24T12:22:39.348Z,2.20
2022-09-24T12:24:56.135Z,2.30
2022-09-24T12:27:15.877Z,1.10
2022-09-24T12:30:03.145Z,1.70
2022-09-24T12:32:39.527Z,1.00
2022-09-24T12:35:00.029Z,2.20
2022-09-24T12:37:17.807Z,5.50
2022-09-24T12:39:36.334Z,1.10
2022-09-24T12:41:55.805Z,1.10
2022-09-24T12:44:21.977Z,1.30
2022-09-24T12:46:42.200Z,1.20
2022-09-24T12:48:58.046Z,1.20
2022-09-24T12:51:13.928Z,3.70
2022-09-24T12:53:31.445Z,0.80
2022-09-24T12:55:51.359Z,1.00
2022-09-24T12:58:07.245Z,0.90
2022-09-24T13:00:40.809Z,0.60
2022-09-24T13:02:56.416Z,1.00
2022-09-24T13:05:30.340Z,2.20
2022-09-24T13:07:45.444Z,4.10
2022-09-24T13:09:58.893Z,0.80
2022-09-24T13:12:26.113Z,0.90
2022-09-24T13:14:40.544Z,0.80
2022-09-24T13:16:58.751Z,5.30
2022-09-24T13:19:27.317Z,0.90
2022-09-24T13:21:43.604Z,0.60
2022-09-24T13:23:57.555Z,1.00
2022-09-24T13:26:12.307Z,1.90
2022-09-24T13:28:38.402Z,2.00
2022-09-24T13:30:57.184Z,1.20
2022-09-24T13:33:26.894Z,7.10
2022-09-24T13:35:46.890Z,1.20
2022-09-24T13:38:07.067Z,1.10
2022-09-24T13:40:27.019Z,4.70
2022-09-24T13:42:46.534Z,5.80
2022-09-24T13:45:05.118Z,1.80
2022-09-24T13:47:26.574Z,0.80
2022-09-24T13:49:42.434Z,1.20
2022-09-24T13:52:05.362Z,5.20
2022-09-24T13:54:27.431Z,0.70
2022-09-24T13:56:40.753Z,3.00
2022-09-24T13:58:55.546Z,2.00
2022-09-24T14:01:14.481Z,1.70
2022-09-24T14:03:30.131Z,1.80
2022-09-24T14:05:44.478Z,1.20
2022-09-24T14:08:07.739Z,1.90
2022-09-24T14:10:21.014Z,0.90
2022-09-24T14:12:34.405Z,4.00
2022-09-24T14:14:50.646Z,3.20
2022-09-24T14:17:16.941Z,1.20
2022-09-24T14:19:30.304Z,1.00
2022-09-24T14:21:47.449Z,1.00
2022-09-24T14:24:04.739Z,1.00
2022-09-24T14:26:27.070Z,4.40
2022-09-24T14:28:41.007Z,0.50
2022-09-24T14:30:59.714Z,1.60
2022-09-24T14:33:17.521Z,2.90
2022-09-24T14:35:35.021Z,1.60
2022-09-24T14:37:55.040Z,1.40
2022-09-24T14:40:15.519Z,1.70
2022-09-24T14:42:33.404Z,3.20
2022-09-24T14:44:49.519Z,2.20
2022-09-24T14:47:03.859Z,1.70
2022-09-24T14:49:26.265Z,2.20
2022-09-24T14:51:39.817Z,1.60
2022-09-24T14:54:03.753Z,1.40
2022-09-24T14:56:31.133Z,2.80
2022-09-24T14:58:45.043Z,1.80
2022-09-24T15:01:01.721Z,2.00
2022-09-24T15:03:20.179Z,2.70
2022-09-24T15:05:34.655Z,2.20
2022-09-24T15:07:49.199Z,1.90
2022-09-24T15:10:04.444Z,2.90
2022-09-24T15:12:27.771Z,2.30
2022-09-24T15:14:41.153Z,2.20
2022-09-24T15:16:55.239Z,1.10
2022-09-24T15:19:28.018Z,2.90
2022-09-24T15:21:41.414Z,1.60
2022-09-24T15:23:57.713Z,4.40
2022-09-24T15:26:12.510Z,2.20
2022-09-24T15:28:30.326Z,1.70
2022-09-24T15:30:43.733Z,1.50
2022-09-24T15:32:57.716Z,1.80
2022-09-24T15:35:11.905Z,1.40
2022-09-24T15:37:27.786Z,2.10
2022-09-24T15:39:41.519Z,1.90
2022-09-24T15:41:55.376Z,3.90
2022-09-24T15:44:09.321Z,1.80
2022-09-24T15:46:22.863Z,2.00
2022-09-24T15:48:36.994Z,1.20
2022-09-24T15:50:52.956Z,4.60
2022-09-24T15:53:07.657Z,1.70
2022-09-24T15:55:23.515Z,1.60
2022-09-24T15:57:36.675Z,1.40
2022-09-24T15:59:50.098Z,1.70
2022-09-24T16:02:07.517Z,0.90
2022-09-24T16:04:20.945Z,1.10
2022-09-24T16:06:34.193Z,1.00
2022-09-24T16:08:47.812Z,1.90
2022-09-24T16:11:01.091Z,1.20
2022-09-24T16:13:14.737Z,1.50
2022-09-24T16:15:28.045Z,1.50
2022-09-24T16:17:41.599Z,2.30
2022-09-24T16:19:54.859Z,1.70
2022-09-24T16:22:08.669Z,0.90
2022-09-24T16:24:21.934Z,1.00
2022-09-24T16:26:35.753Z,1.90
2022-09-24T16:28:50.714Z,1.90
2022-09-24T16:31:08.313Z,0.90
2022-09-24T16:33:22.158Z,0.80
2022-09-24T16:35:35.382Z,1.20
2022-09-24T16:37:48.813Z,0.70
2022-09-24T16:40:02.194Z,3.60
2022-09-24T16:42:15.646Z,1.00
2022-09-24T16:44:29.073Z,3.90
2022-09-24T16:46:42.437Z,1.00
2022-09-24T16:48:57.257Z,0.90
2022-09-24T16:51:12.436Z,0.90
2022-09-24T16:53:26.003Z,1.40
2022-09-24T16:55:39.157Z,0.80
2022-09-24T16:57:52.623Z,0.80
2022-09-24T17:00:06.860Z,0.90
2022-09-24T17:02:21.405Z,1.20
2022-09-24T17:04:36.685Z,1.50
2022-09-24T17:06:49.958Z,5.30
2022-09-24T17:09:20.523Z,8.00
2022-09-24T17:11:33.882Z,13.00
2022-09-24T17:13:48.734Z,12.00
2022-09-24T17:16:04.586Z,10.90
2022-09-24T17:18:17.834Z,11.60
2022-09-24T17:20:32.970Z,16.90
2022-09-24T17:22:46.344Z,17.00
2022-09-24T17:24:59.690Z,10.00
2022-09-24T17:27:14.002Z,10.20
2022-09-24T17:29:31.231Z,10.90
2022-09-24T17:31:45.374Z,11.90
2022-09-24T17:34:03.691Z,18.50
2022-09-24T17:36:17.589Z,13.00
2022-09-24T17:38:31.920Z,16.80
2022-09-24T17:40:45.121Z,17.30
2022-09-24T17:42:58.642Z,14.00
2022-09-24T17:45:14.663Z,24.00
2022-09-24T17:47:48.351Z,16.20
2022-09-24T17:50:02.425Z,16.70
2022-09-24T17:52:15.733Z,19.20
2022-09-24T17:54:29.098Z,15.80
2022-09-24T17:56:42.635Z,19.50
2022-09-24T17:58:57.860Z,16.80
2022-09-24T18:01:12.965Z,18.10
2022-09-24T18:03:26.353Z,18.00
2022-09-24T18:05:39.749Z,10.60
2022-09-24T18:07:53.274Z,24.90
2022-09-24T18:10:06.557Z,18.00
2022-09-24T18:12:19.828Z,15.30
2022-09-24T18:14:33.283Z,12.80
2022-09-24T18:16:47.497Z,22.00
2022-09-24T18:19:01.943Z,10.80
2022-09-24T18:21:17.155Z,15.90
2022-09-24T18:23:30.595Z,16.90
2022-09-24T18:25:44.697Z,18.20
2022-09-24T18:28:02.053Z,14.70
2022-09-24T18:30:17.680Z,17.90
2022-09-24T18:32:32.987Z,13.40
2022-09-24T18:34:46.255Z,4.80
2022-09-24T18:36:59.561Z,18.60
2022-09-24T18:39:17.686Z,18.70
2022-09-24T18:41:34.625Z,10.20
2022-09-24T18:43:48.399Z,10.20
2022-09-24T18:46:05.616Z,17.80
2022-09-24T18:48:19.249Z,14.30
2022-09-24T18:50:32.697Z,16.30
2022-09-24T18:52:46.082Z,13.70
2022-09-24T18:54:59.396Z,17.90
2022-09-24T18:57:12.813Z,10.90
2022-09-24T18:59:27.272Z,10.40
2022-09-24T19:01:41.033Z,18.20
2022-09-24T19:03:54.321Z,13.60
2022-09-24T19:06:11.657Z,13.70
2022-09-24T19:08:25.791Z,11.30
2022-09-24T19:10:39.439Z,18.70
2022-09-24T19:12:54.724Z,16.80
2022-09-24T19:15:08.290Z,15.20
2022-09-24T19:17:21.513Z,9.80
2022-09-24T19:19:34.828Z,12.30
2022-09-24T19:21:48.331Z,11.40
2022-09-24T19:24:02.670Z,32.80
2022-09-24T19:26:17.368Z,17.80
2022-09-24T19:28:30.779Z,14.80
2022-09-24T19:30:47.644Z,9.90
2022-09-24T19:33:01.251Z,13.50
2022-09-24T19:35:16.007Z,12.70
2022-09-24T19:37:30.363Z,10.90
2022-09-24T19:39:43.682Z,18.00
2022-09-24T19:41:56.970Z,10.00
2022-09-24T19:44:10.691Z,20.90
2022-09-24T19:46:26.732Z,15.10
2022-09-24T19:48:42.919Z,9.60
2022-09-24T19:50:56.357Z,17.10
2022-09-24T19:53:10.923Z,10.00
2022-09-24T19:55:28.376Z,14.60
2022-09-24T19:57:42.138Z,10.10
2022-09-24T19:59:55.490Z,6.90
2022-09-24T20:02:08.868Z,11.60
2022-09-24T20:04:22.390Z,11.80
2022-09-24T20:06:36.179Z,14.70
2022-09-24T20:08:50.080Z,18.40
2022-09-24T20:11:08.954Z,13.40
2022-09-24T20:13:22.242Z,13.90
2022-09-24T20:15:35.659Z,22.70
2022-09-24T20:17:48.980Z,18.90
2022-09-24T20:20:02.691Z,14.20
2022-09-24T20:22:17.538Z,6.00
2022-09-24T20:24:31.339Z,15.40
2022-09-24T20:27:00.967Z,15.90
2022-09-24T20:29:16.078Z,18.00
2022-09-24T20:31:30.010Z,17.70
2022-09-24T20:33:43.809Z,16.20
2022-09-24T20:36:03.713Z,12.20
2022-09-24T20:38:17.293Z,14.40
2022-09-24T20:40:30.667Z,13.90
2022-09-24T20:42:45.508Z,11.30
2022-09-24T20:45:03.760Z,18.70
2022-09-24T20:47:19.470Z,17.10
2022-09-24T20:49:34.428Z,11.20
2022-09-24T20:51:49.672Z,20.10
2022-09-24T20:54:06.962Z,13.80
2022-09-24T20:56:21.365Z,11.40
2022-09-24T20:58:35.034Z,10.20
2022-09-24T21:00:55.656Z,5.80
2022-09-24T21:03:31.965Z,18.50
2022-09-24T21:05:42.109Z,17.70
2022-09-24T21:07:55.321Z,13.40
2022-09-24T21:10:08.968Z,12.80
2022-09-24T21:12:24.215Z,14.30
2022-09-24T21:14:37.756Z,11.60
2022-09-24T21:16:51.444Z,13.10
2022-09-24T21:19:09.030Z,13.00
2022-09-24T21:21:24.071Z,14.60
2022-09-24T21:23:39.136Z,21.70
2022-09-24T21:25:54.783Z,12.00
2022-09-24T21:28:10.498Z,8.50
2022-09-24T21:30:23.772Z,9.50
2022-09-24T21:32:38.441Z,9.40
2022-09-24T21:34:51.890Z,15.10
2022-09-24T21:37:05.207Z,18.30
2022-09-24T21:39:21.433Z,15.90
2022-09-24T21:41:36.568Z,13.20
2022-09-24T21:43:50.182Z,11.50
2022-09-24T21:46:09.600Z,11.30
2022-09-24T21:48:23.237Z,13.30
2022-09-24T21:50:40.186Z,15.00
2022-09-24T21:52:54.493Z,11.80
2022-09-24T21:55:08.108Z,25.90
2022-09-24T21:57:22.173Z,24.10
2022-09-24T21:59:51.365Z,11.10
2022-09-24T22:02:04.784Z,7.80
2022-09-24T22:04:18.284Z,14.60
2022-09-24T22:06:32.534Z,13.10
2022-09-24T22:08:46.206Z,8.80
2022-09-24T22:11:09.758Z,9.80
2022-09-24T22:13:23.373Z,13.50
2022-09-24T22:15:38.100Z,10.90
2022-09-24T22:17:51.389Z,18.00
2022-09-24T22:20:04.954Z,9.10
2022-09-24T22:22:18.418Z,13.10
2022-09-24T22:24:31.922Z,7.00
2022-09-24T22:26:45.321Z,15.10
2022-09-24T22:28:59.052Z,12.50
2022-09-24T22:31:14.693Z,7.20
2022-09-24T22:33:45.087Z,11.40
2022-09-24T22:36:01.410Z,3.00
2022-09-24T22:38:14.683Z,2.30
2022-09-24T22:40:28.022Z,1.40
2022-09-24T22:42:41.350Z,2.90
2022-09-24T22:44:54.613Z,2.80
2022-09-24T22:47:07.950Z,2.80
2022-09-24T22:49:21.380Z,2.50
2022-09-24T22:51:35.099Z,3.70
2022-09-24T22:53:48.562Z,7.90
2022-09-24T22:56:12.030Z,11.30
2022-09-24T22:58:25.405Z,10.90
2022-09-24T23:00:40.540Z,18.70
2022-09-24T23:02:54.035Z,2.60
2022-09-24T23:05:07.753Z,3.90
2022-09-24T23:07:21.288Z,5.70
2022-09-24T23:09:34.696Z,12.70
2022-09-24T23:11:47.942Z,7.10
2022-09-24T23:14:02.939Z,5.10
2022-09-24T23:16:18.284Z,11.70
2022-09-24T23:18:31.833Z,9.60
2022-09-24T23:20:46.289Z,12.60
2022-09-24T23:22:59.962Z,8.80
2022-09-24T23:25:14.643Z,4.60
2022-09-24T23:27:28.048Z,3.60
2022-09-24T23:29:41.400Z,3.00
2022-09-24T23:31:54.714Z,2.10
2022-09-24T23:34:09.537Z,2.30
2022-09-24T23:36:22.826Z,3.20
2022-09-24T23:38:36.951Z,2.00
2022-09-24T23:40:52.072Z,11.90
2022-09-24T23:43:05.522Z,11.90
2022-09-24T23:45:19.317Z,16.70
2022-09-24T23:47:36.032Z,7.60
2022-09-24T23:49:49.921Z,6.30
2022-09-24T23:52:03.331Z,4.00
2022-09-24T23:54:16.619Z,7.80
2022-09-24T23:56:30.119Z,3.90
2022-09-24T23:58:44.327Z,5.70
